Weather observations for the past three days for
Sedalia, Sedalia Memorial Airport
Imperial (Metric)
Date Time (cdt) Wind (mph) Vis. (mi.) Weather Sky Cond. Temperature (ºF) Relative Humidity Wind Chill (°F) Heat Index (°F) Pressure Precipitation (in)
Air Dwpt 6 hour altimeter (in) sea level (mb) 1 hr 3 hr 6 hr
Max. Min.
03 11:53 SW 21 G 35 10.00 Fair and Breezy CLR 70 45 41% 29.95 1013.8
03 10:53 SW 20 G 31 10.00 Fair CLR 66 42.1 42% 29.97 1014.6
03 09:53 SW 18 G 30 10.00 Fair CLR 61 39 44% 29.99 1015.5
03 08:53 S 14 G 26 10.00 Fair CLR 57 37.9 49% 30.01 1016.3
03 07:53 S 13 10.00 Fair CLR 53.1 37 55% 30.03 1016.7
03 06:53 S 10 10.00 Fair CLR 48 36 48 44.1 63% 44 30.02 1016.7
03 05:53 S 13 10.00 Fair CLR 46.9 36 66% 42 30.02 1016.6
03 04:53 S 10 10.00 Fair CLR 48 36 63% 44 30.04 1017.0
03 03:53 S 12 10.00 Fair CLR 44.1 36 73% 39 30.04 1017.3
03 02:53 S 7 10.00 Fair CLR 45 36 71% 42 30.06 1017.9
03 01:53 S 7 10.00 Fair CLR 46 36 68% 43 30.07 1018.4
03 00:53 S 7 10.00 Fair CLR 46.9 35.1 60.1 45 63% 44 30.09 1018.9
02 23:53 S 7 10.00 Fair CLR 48 34 58% 45 30.1 1019.4
02 22:53 SW 6 10.00 Fair CLR 50 33.1 52% 48 30.11 1019.6
02 21:53 SW 6 10.00 Fair CLR 52 34 50% 30.11 1019.6
02 20:53 Calm 10.00 Fair CLR 55.9 30 37% 30.1 1019.4
02 19:53 W 3 10.00 Fair CLR 57.9 30 35% 30.09 1019.1
02 18:53 W 5 10.00 Fair CLR 60.1 27 63 57 28% 30.1 1019.3
02 17:53 W 9 G 18 10.00 Fair CLR 62.1 27 26% 30.11 1019.6
02 16:53 Vrbl 5 10.00 Fair CLR 62.1 28 28% 30.11 1019.5
02 15:53 W 10 10.00 Fair CLR 62.1 28 28% 30.12 1020.0
02 14:53 NW 7 10.00 A Few Clouds FEW075 61 28.9 30% 30.14 1020.6
02 13:53 Vrbl 6 10.00 A Few Clouds FEW070 60.1 28.9 31% 30.15 1021.1
02 12:53 N 9 10.00 Fair CLR 59 28.9 59 42.1 32% 30.16 1021.5
02 11:53 NW 9 10.00 Mostly Cloudy BKN060 55.9 30 37% 30.17 1021.8
02 10:53 N 9 10.00 A Few Clouds FEW060 55.9 32 40% 30.17 1021.8
02 09:53 N 8 10.00 Fair CLR 54 37.9 55% 30.17 1021.8
02 08:53 N 7 10.00 A Few Clouds FEW070 48.9 41 74% 46 30.17 1021.5
02 07:53 N 6 10.00 A Few Clouds FEW070 45 39.9 83% 42 30.15 1020.9
02 06:53 NW 6 10.00 Partly Cloudy SCT070 42.1 37.9 46.9 41 85% 39 30.13 1020.3
02 05:53 NW 6 10.00 Partly Cloudy SCT065 41 37 86% 38 30.11 1019.7
02 04:53 NW 6 10.00 Fair CLR 43 37 80% 40 30.1 1019.4
02 03:53 NW 7 10.00 Fair CLR 44.1 37 76% 41 30.09 1019.0
02 02:53 NW 5 10.00 Fair CLR 44.1 36 73% 42 30.08 1018.7
02 01:53 N 5 10.00 Fair CLR 46 36 68% 44 30.08 1018.6
02 00:53 NE 5 10.00 Fair CLR 48 35.1 61 46.9 61% 47 30.08 1018.7
01 23:53 N 6 10.00 Fair CLR 48.9 35.1 59% 47 30.08 1018.6
01 22:53 NW 6 10.00 Fair CLR 51.1 33.1 50% 30.07 1018.4
01 21:53 NW 6 10.00 Partly Cloudy SCT095 53.1 33.1 47% 30.07 1018.4
01 20:53 NW 3 10.00 Fair CLR 55 32 42% 30.05 1017.6
01 19:53 NW 6 10.00 A Few Clouds FEW100 57.9 36 44% 30.02 1016.5
01 18:53 NW 5 10.00 Mostly Cloudy FEW090 BKN110 60.1 35.1 64 59 39% 30.01 1016.3
01 17:53 NW 9 10.00 Mostly Cloudy SCT075 BKN110 62.1 33.1 34% 30.01 1016.4
01 16:53 W 8 10.00 Partly Cloudy FEW080 SCT110 62.1 32 32% 30.02 1016.6
01 15:53 W 10 G 26 10.00 Mostly Cloudy SCT075 BKN100 64 32 30% 30.05 1017.5
01 14:53 W 12 G 20 10.00 Mostly Cloudy SCT080 BKN095 61 30.9 32% 30.08 1018.6
01 13:53 W 10 10.00 Partly Cloudy SCT080 63 30.9 30% 30.09 1018.7
01 12:53 Calm 10.00 Fair CLR 59 28.9 61 39 32% 30.09 1019.1
01 11:53 S 5 10.00 Fair CLR 57.9 30 35% 30.11 1019.6
01 10:53 W 9 10.00 Fair CLR 57 30 36% 30.11 1019.6
01 09:53 Vrbl 5 10.00 Fair CLR 54 32 43% 30.11 1019.6
01 08:53 Calm 10.00 Fair CLR 51.1 34 52% 30.11 1019.8
01 07:53 Calm 10.00 Fair CLR 46.9 37.9 71% 30.11 1019.6
01 06:53 Calm 10.00 Fair CLR 39 36 48 37.9 89% 30.1 1019.4
01 05:53 Calm 10.00 Fair CLR 39.9 35.1 83% 30.09 1019.0
01 04:53 NW 3 10.00 Fair CLR 42.1 36 79% 30.09 1019.1
01 03:53 N 3 10.00 Fair CLR 43 37 80% 30.09 1019.1
01 02:53 NW 5 10.00 Fair CLR 45 37 74% 43 30.1 1019.3
01 01:53 NW 5 10.00 Fair CLR 46 37.9 73% 44 30.1 1019.2
01 00:53 NW 5 10.00 Fair CLR 46.9 39 62.1 46.9 74% 45 30.1 1019.3
30 23:53 N 7 10.00 Fair CLR 50 39.9 68% 48 30.09 1018.8
30 22:53 N 7 10.00 Overcast BKN070 OVC090 52 41 66% 30.08 1018.5
30 21:53 N 9 10.00 Overcast OVC055 54 43 67% 30.08 1018.4
30 20:53 N 17 10.00 Overcast BKN043 OVC050 55.9 45 67% 30.04 1017.2
30 19:53 SW 3 10.00 Overcast BKN050 OVC060 55.9 48.9 77% 30 1015.9
30 18:53 SW 7 10.00 Overcast BKN060 OVC085 61 45 66 61 56% 29.97 1015.0
30 17:53 SW 12 10.00 Mostly Cloudy SCT060 BKN070 64 43 46% 29.98 1015.2
30 16:53 W 10 G 18 10.00 Mostly Cloudy FEW023 BKN100 64 42.1 45% 29.99 1015.4
30 15:53 SW 9 G 21 10.00 Partly Cloudy FEW055 SCT090 63 42.1 47% 30.02 1016.5
30 14:53 SW 7 10.00 Overcast BKN055 BKN065 OVC080 63 41 45% 30.04 1017.2
30 13:53 SW 10 G 21 10.00 Mostly Cloudy BKN070 63 39.9 43% 30.05 1017.6
30 12:53 W 10 10.00 Mostly Cloudy BKN070 BKN090 62.1 39.9 63 42.1 44% 30.08 1018.4
Date Time (cdt) Wind (mph) Vis. (mi.) Weather Sky Cond. Air Dwpt Max. Min. Relative Humidity Wind Chill (°F) Heat Index (°F) altimeter (in) sea level (mb) 1 hr 3 hr 6 hr
6 hour
Temperature (ºF) Pressure Precipitation (in)